sensor_id;sensor_type;location;lat;lon;timestamp;P1;durP1;ratioP1;P2;durP2;ratioP2
66052;SDS011;52833;45.112;39.556;2022-07-25T00:02:16;8.35;;;6.63;;
66052;SDS011;52833;45.112;39.556;2022-07-25T00:04:42;9.32;;;6.60;;
66052;SDS011;52833;45.112;39.556;2022-07-25T00:07:09;9.23;;;6.00;;
66052;SDS011;52833;45.112;39.556;2022-07-25T00:09:35;9.30;;;6.70;;
66052;SDS011;52833;45.112;39.556;2022-07-25T00:12:02;10.07;;;6.72;;
66052;SDS011;52833;45.112;39.556;2022-07-25T00:14:29;12.30;;;6.53;;
66052;SDS011;52833;45.112;39.556;2022-07-25T00:16:55;9.85;;;6.63;;
66052;SDS011;52833;45.112;39.556;2022-07-25T00:19:22;7.95;;;6.32;;
66052;SDS011;52833;45.112;39.556;2022-07-25T00:21:49;8.75;;;6.32;;
66052;SDS011;52833;45.112;39.556;2022-07-25T00:24:16;13.25;;;6.88;;
66052;SDS011;52833;45.112;39.556;2022-07-25T00:26:43;17.33;;;6.95;;
66052;SDS011;52833;45.112;39.556;2022-07-25T00:29:10;9.40;;;7.07;;
66052;SDS011;52833;45.112;39.556;2022-07-25T00:31:36;12.80;;;7.57;;
66052;SDS011;52833;45.112;39.556;2022-07-25T00:34:03;9.27;;;6.70;;
66052;SDS011;52833;45.112;39.556;2022-07-25T00:36:30;7.57;;;6.43;;
66052;SDS011;52833;45.112;39.556;2022-07-25T00:38:56;10.82;;;6.72;;
66052;SDS011;52833;45.112;39.556;2022-07-25T00:41:22;10.98;;;7.88;;
66052;SDS011;52833;45.112;39.556;2022-07-25T00:43:49;9.25;;;6.68;;
66052;SDS011;52833;45.112;39.556;2022-07-25T00:46:15;11.13;;;7.18;;
66052;SDS011;52833;45.112;39.556;2022-07-25T00:48:42;9.98;;;7.70;;
66052;SDS011;52833;45.112;39.556;2022-07-25T00:51:10;14.07;;;7.55;;
66052;SDS011;52833;45.112;39.556;2022-07-25T00:53:37;13.13;;;7.28;;
66052;SDS011;52833;45.112;39.556;2022-07-25T00:56:05;9.82;;;6.95;;
66052;SDS011;52833;45.112;39.556;2022-07-25T00:58:32;11.18;;;7.97;;
66052;SDS011;52833;45.112;39.556;2022-07-25T01:00:59;9.95;;;7.43;;
66052;SDS011;52833;45.112;39.556;2022-07-25T01:03:26;15.55;;;7.07;;
66052;SDS011;52833;45.112;39.556;2022-07-25T01:05:54;15.38;;;7.85;;
66052;SDS011;52833;45.112;39.556;2022-07-25T01:08:20;14.65;;;7.72;;
66052;SDS011;52833;45.112;39.556;2022-07-25T01:10:50;11.07;;;8.15;;
66052;SDS011;52833;45.112;39.556;2022-07-25T01:13:18;10.80;;;7.78;;
66052;SDS011;52833;45.112;39.556;2022-07-25T01:15:44;11.55;;;8.10;;
66052;SDS011;52833;45.112;39.556;2022-07-25T01:18:11;10.20;;;7.25;;
66052;SDS011;52833;45.112;39.556;2022-07-25T01:20:37;10.45;;;7.72;;
66052;SDS011;52833;45.112;39.556;2022-07-25T01:23:03;13.82;;;7.88;;
66052;SDS011;52833;45.112;39.556;2022-07-25T01:25:30;11.88;;;7.97;;
66052;SDS011;52833;45.112;39.556;2022-07-25T01:27:57;13.43;;;8.32;;
66052;SDS011;52833;45.112;39.556;2022-07-25T01:30:24;12.20;;;7.75;;
66052;SDS011;52833;45.112;39.556;2022-07-25T01:32:51;15.40;;;7.43;;
66052;SDS011;52833;45.112;39.556;2022-07-25T01:35:17;15.85;;;8.57;;
66052;SDS011;52833;45.112;39.556;2022-07-25T01:37:44;8.43;;;7.20;;
66052;SDS011;52833;45.112;39.556;2022-07-25T01:40:11;9.13;;;7.70;;
66052;SDS011;52833;45.112;39.556;2022-07-25T01:42:38;8.98;;;7.13;;
66052;SDS011;52833;45.112;39.556;2022-07-25T01:45:05;12.70;;;7.13;;
66052;SDS011;52833;45.112;39.556;2022-07-25T01:47:32;14.90;;;8.18;;
66052;SDS011;52833;45.112;39.556;2022-07-25T01:49:58;10.52;;;7.65;;
66052;SDS011;52833;45.112;39.556;2022-07-25T01:52:25;11.77;;;8.38;;
66052;SDS011;52833;45.112;39.556;2022-07-25T01:54:52;14.82;;;8.18;;
66052;SDS011;52833;45.112;39.556;2022-07-25T01:57:18;16.63;;;7.80;;
66052;SDS011;52833;45.112;39.556;2022-07-25T01:59:45;11.45;;;7.03;;
66052;SDS011;52833;45.112;39.556;2022-07-25T02:02:11;10.18;;;7.72;;
66052;SDS011;52833;45.112;39.556;2022-07-25T02:04:41;9.68;;;8.05;;
66052;SDS011;52833;45.112;39.556;2022-07-25T02:07:07;9.98;;;7.53;;
66052;SDS011;52833;45.112;39.556;2022-07-25T02:09:34;13.05;;;8.68;;
66052;SDS011;52833;45.112;39.556;2022-07-25T02:12:00;13.75;;;8.23;;
66052;SDS011;52833;45.112;39.556;2022-07-25T02:14:27;11.23;;;8.82;;
66052;SDS011;52833;45.112;39.556;2022-07-25T02:16:54;10.07;;;8.20;;
66052;SDS011;52833;45.112;39.556;2022-07-25T02:19:21;12.02;;;8.07;;
66052;SDS011;52833;45.112;39.556;2022-07-25T02:21:47;11.07;;;8.40;;
66052;SDS011;52833;45.112;39.556;2022-07-25T02:24:14;11.27;;;8.32;;
66052;SDS011;52833;45.112;39.556;2022-07-25T02:26:41;9.38;;;8.05;;
66052;SDS011;52833;45.112;39.556;2022-07-25T02:29:08;14.10;;;8.93;;
66052;SDS011;52833;45.112;39.556;2022-07-25T02:31:34;12.07;;;8.82;;
66052;SDS011;52833;45.112;39.556;2022-07-25T02:34:01;12.93;;;8.50;;
66052;SDS011;52833;45.112;39.556;2022-07-25T02:36:29;11.75;;;7.85;;
66052;SDS011;52833;45.112;39.556;2022-07-25T02:38:55;12.57;;;7.45;;
66052;SDS011;52833;45.112;39.556;2022-07-25T02:41:22;11.15;;;6.60;;
66052;SDS011;52833;45.112;39.556;2022-07-25T02:43:48;11.65;;;6.43;;
66052;SDS011;52833;45.112;39.556;2022-07-25T02:46:15;9.60;;;6.10;;
66052;SDS011;52833;45.112;39.556;2022-07-25T02:48:42;7.47;;;5.80;;
66052;SDS011;52833;45.112;39.556;2022-07-25T02:51:08;11.57;;;5.82;;
66052;SDS011;52833;45.112;39.556;2022-07-25T02:53:35;10.38;;;6.00;;
66052;SDS011;52833;45.112;39.556;2022-07-25T02:56:02;9.18;;;5.25;;
66052;SDS011;52833;45.112;39.556;2022-07-25T02:58:28;5.75;;;4.90;;
66052;SDS011;52833;45.112;39.556;2022-07-25T03:00:55;7.57;;;5.15;;
66052;SDS011;52833;45.112;39.556;2022-07-25T03:03:22;7.65;;;5.05;;
66052;SDS011;52833;45.112;39.556;2022-07-25T03:05:48;5.70;;;4.63;;
66052;SDS011;52833;45.112;39.556;2022-07-25T03:08:15;7.38;;;4.57;;
66052;SDS011;52833;45.112;39.556;2022-07-25T03:10:42;7.25;;;4.43;;
66052;SDS011;52833;45.112;39.556;2022-07-25T03:13:08;7.40;;;4.50;;
66052;SDS011;52833;45.112;39.556;2022-07-25T03:15:35;7.43;;;5.25;;
66052;SDS011;52833;45.112;39.556;2022-07-25T03:18:03;7.75;;;4.25;;
66052;SDS011;52833;45.112;39.556;2022-07-25T03:20:29;7.25;;;4.50;;
66052;SDS011;52833;45.112;39.556;2022-07-25T03:22:56;9.75;;;4.50;;
66052;SDS011;52833;45.112;39.556;2022-07-25T03:25:23;5.43;;;4.35;;
66052;SDS011;52833;45.112;39.556;2022-07-25T03:27:50;8.05;;;4.03;;
66052;SDS011;52833;45.112;39.556;2022-07-25T03:30:17;5.05;;;4.32;;
66052;SDS011;52833;45.112;39.556;2022-07-25T03:32:43;6.85;;;4.47;;
66052;SDS011;52833;45.112;39.556;2022-07-25T03:35:09;7.93;;;4.45;;
66052;SDS011;52833;45.112;39.556;2022-07-25T03:37:36;7.32;;;4.28;;
66052;SDS011;52833;45.112;39.556;2022-07-25T03:40:03;5.38;;;4.20;;
66052;SDS011;52833;45.112;39.556;2022-07-25T03:42:30;5.32;;;4.00;;
66052;SDS011;52833;45.112;39.556;2022-07-25T03:44:57;17.60;;;4.07;;
66052;SDS011;52833;45.112;39.556;2022-07-25T03:47:23;5.32;;;4.00;;
66052;SDS011;52833;45.112;39.556;2022-07-25T03:49:50;6.43;;;3.83;;
66052;SDS011;52833;45.112;39.556;2022-07-25T03:52:17;6.38;;;3.92;;
66052;SDS011;52833;45.112;39.556;2022-07-25T03:54:43;6.53;;;4.10;;
66052;SDS011;52833;45.112;39.556;2022-07-25T03:57:10;5.28;;;4.10;;
66052;SDS011;52833;45.112;39.556;2022-07-25T03:59:37;4.07;;;3.67;;
66052;SDS011;52833;45.112;39.556;2022-07-25T04:02:04;4.53;;;3.90;;
66052;SDS011;52833;45.112;39.556;2022-07-25T04:04:31;8.30;;;3.97;;
66052;SDS011;52833;45.112;39.556;2022-07-25T04:06:58;4.95;;;4.05;;
66052;SDS011;52833;45.112;39.556;2022-07-25T04:09:24;5.57;;;3.63;;
66052;SDS011;52833;45.112;39.556;2022-07-25T04:11:51;4.22;;;3.60;;
66052;SDS011;52833;45.112;39.556;2022-07-25T04:14:18;7.72;;;4.13;;
66052;SDS011;52833;45.112;39.556;2022-07-25T04:16:44;5.53;;;3.83;;
66052;SDS011;52833;45.112;39.556;2022-07-25T04:19:11;4.18;;;3.70;;
66052;SDS011;52833;45.112;39.556;2022-07-25T04:21:37;6.60;;;3.78;;
66052;SDS011;52833;45.112;39.556;2022-07-25T04:24:04;4.90;;;3.85;;
66052;SDS011;52833;45.112;39.556;2022-07-25T04:26:31;5.90;;;3.50;;
66052;SDS011;52833;45.112;39.556;2022-07-25T04:28:57;5.95;;;3.92;;
66052;SDS011;52833;45.112;39.556;2022-07-25T04:31:28;4.10;;;3.70;;
66052;SDS011;52833;45.112;39.556;2022-07-25T04:33:55;4.40;;;3.50;;
66052;SDS011;52833;45.112;39.556;2022-07-25T04:36:21;4.97;;;3.95;;
66052;SDS011;52833;45.112;39.556;2022-07-25T04:38:48;19.55;;;10.88;;
66052;SDS011;52833;45.112;39.556;2022-07-25T04:41:14;15.85;;;9.82;;
66052;SDS011;52833;45.112;39.556;2022-07-25T04:43:41;5.78;;;3.33;;
66052;SDS011;52833;45.112;39.556;2022-07-25T04:46:08;4.35;;;3.50;;
66052;SDS011;52833;45.112;39.556;2022-07-25T04:48:35;3.53;;;3.20;;
66052;SDS011;52833;45.112;39.556;2022-07-25T04:51:01;4.25;;;3.30;;
66052;SDS011;52833;45.112;39.556;2022-07-25T04:53:28;5.10;;;3.38;;
66052;SDS011;52833;45.112;39.556;2022-07-25T04:55:55;5.45;;;3.38;;
66052;SDS011;52833;45.112;39.556;2022-07-25T04:58:21;14.23;;;5.75;;
66052;SDS011;52833;45.112;39.556;2022-07-25T05:00:48;7.30;;;5.00;;
66052;SDS011;52833;45.112;39.556;2022-07-25T05:03:14;5.88;;;3.97;;
66052;SDS011;52833;45.112;39.556;2022-07-25T05:05:41;4.88;;;3.60;;
66052;SDS011;52833;45.112;39.556;2022-07-25T05:08:08;7.63;;;3.83;;
66052;SDS011;52833;45.112;39.556;2022-07-25T05:10:34;4.72;;;3.83;;
66052;SDS011;52833;45.112;39.556;2022-07-25T05:13:01;5.85;;;3.22;;
66052;SDS011;52833;45.112;39.556;2022-07-25T05:15:28;4.43;;;3.55;;
66052;SDS011;52833;45.112;39.556;2022-07-25T05:17:55;9.63;;;3.25;;
66052;SDS011;52833;45.112;39.556;2022-07-25T05:20:21;4.35;;;3.50;;
66052;SDS011;52833;45.112;39.556;2022-07-25T05:22:48;3.33;;;2.97;;
66052;SDS011;52833;45.112;39.556;2022-07-25T05:25:15;4.55;;;3.10;;
66052;SDS011;52833;45.112;39.556;2022-07-25T05:27:42;3.70;;;3.35;;
66052;SDS011;52833;45.112;39.556;2022-07-25T05:30:10;4.20;;;3.42;;
66052;SDS011;52833;45.112;39.556;2022-07-25T05:32:38;7.15;;;3.55;;
66052;SDS011;52833;45.112;39.556;2022-07-25T05:35:06;7.57;;;3.33;;
66052;SDS011;52833;45.112;39.556;2022-07-25T05:37:35;3.75;;;3.05;;
66052;SDS011;52833;45.112;39.556;2022-07-25T05:40:03;3.75;;;3.13;;
66052;SDS011;52833;45.112;39.556;2022-07-25T05:42:31;7.38;;;3.30;;
66052;SDS011;52833;45.112;39.556;2022-07-25T05:44:57;4.18;;;2.88;;
66052;SDS011;52833;45.112;39.556;2022-07-25T05:47:24;8.60;;;4.45;;
66052;SDS011;52833;45.112;39.556;2022-07-25T05:49:50;11.77;;;3.30;;
66052;SDS011;52833;45.112;39.556;2022-07-25T05:52:17;4.65;;;3.00;;
66052;SDS011;52833;45.112;39.556;2022-07-25T05:54:44;4.03;;;3.03;;
66052;SDS011;52833;45.112;39.556;2022-07-25T05:57:11;5.65;;;3.30;;
66052;SDS011;52833;45.112;39.556;2022-07-25T05:59:38;3.22;;;2.92;;
66052;SDS011;52833;45.112;39.556;2022-07-25T06:02:04;3.15;;;2.78;;
66052;SDS011;52833;45.112;39.556;2022-07-25T06:04:31;8.63;;;2.97;;
66052;SDS011;52833;45.112;39.556;2022-07-25T06:06:59;4.82;;;2.97;;
66052;SDS011;52833;45.112;39.556;2022-07-25T06:09:25;5.32;;;2.67;;
66052;SDS011;52833;45.112;39.556;2022-07-25T06:11:52;4.80;;;2.88;;
66052;SDS011;52833;45.112;39.556;2022-07-25T06:14:18;4.60;;;3.13;;
66052;SDS011;52833;45.112;39.556;2022-07-25T06:16:45;4.53;;;2.75;;
66052;SDS011;52833;45.112;39.556;2022-07-25T06:19:11;3.72;;;2.88;;
66052;SDS011;52833;45.112;39.556;2022-07-25T06:21:38;6.65;;;3.08;;
66052;SDS011;52833;45.112;39.556;2022-07-25T06:24:07;6.30;;;3.30;;
66052;SDS011;52833;45.112;39.556;2022-07-25T06:26:36;3.80;;;3.15;;
66052;SDS011;52833;45.112;39.556;2022-07-25T06:29:03;4.53;;;2.97;;
66052;SDS011;52833;45.112;39.556;2022-07-25T06:31:30;4.88;;;3.00;;
66052;SDS011;52833;45.112;39.556;2022-07-25T06:33:57;4.32;;;2.90;;
66052;SDS011;52833;45.112;39.556;2022-07-25T06:36:23;3.42;;;2.80;;
66052;SDS011;52833;45.112;39.556;2022-07-25T06:38:51;4.88;;;2.53;;
66052;SDS011;52833;45.112;39.556;2022-07-25T06:41:17;7.60;;;3.47;;
66052;SDS011;52833;45.112;39.556;2022-07-25T06:43:44;5.13;;;3.15;;
66052;SDS011;52833;45.112;39.556;2022-07-25T06:46:11;3.95;;;2.80;;
66052;SDS011;52833;45.112;39.556;2022-07-25T06:48:38;5.20;;;2.78;;
66052;SDS011;52833;45.112;39.556;2022-07-25T06:51:06;4.72;;;2.90;;
66052;SDS011;52833;45.112;39.556;2022-07-25T06:53:33;5.50;;;2.95;;
66052;SDS011;52833;45.112;39.556;2022-07-25T06:56:00;3.67;;;2.70;;
66052;SDS011;52833;45.112;39.556;2022-07-25T06:58:27;6.90;;;2.80;;
66052;SDS011;52833;45.112;39.556;2022-07-25T07:00:54;4.15;;;2.88;;
66052;SDS011;52833;45.112;39.556;2022-07-25T07:03:21;7.85;;;3.08;;
66052;SDS011;52833;45.112;39.556;2022-07-25T07:05:47;4.90;;;2.85;;
66052;SDS011;52833;45.112;39.556;2022-07-25T07:08:17;3.70;;;3.03;;
66052;SDS011;52833;45.112;39.556;2022-07-25T07:10:43;3.95;;;2.53;;
66052;SDS011;52833;45.112;39.556;2022-07-25T07:13:11;6.70;;;2.60;;
66052;SDS011;52833;45.112;39.556;2022-07-25T07:15:43;6.28;;;2.60;;
66052;SDS011;52833;45.112;39.556;2022-07-25T07:18:13;3.28;;;2.95;;
66052;SDS011;52833;45.112;39.556;2022-07-25T07:20:39;2.75;;;2.35;;
66052;SDS011;52833;45.112;39.556;2022-07-25T07:23:06;11.52;;;6.95;;
66052;SDS011;52833;45.112;39.556;2022-07-25T07:25:33;3.10;;;2.70;;
66052;SDS011;52833;45.112;39.556;2022-07-25T07:28:00;5.13;;;2.70;;
66052;SDS011;52833;45.112;39.556;2022-07-25T07:30:27;2.83;;;2.55;;
66052;SDS011;52833;45.112;39.556;2022-07-25T07:32:54;4.55;;;2.78;;
66052;SDS011;52833;45.112;39.556;2022-07-25T07:35:20;7.60;;;2.90;;
66052;SDS011;52833;45.112;39.556;2022-07-25T07:37:50;6.18;;;2.70;;
66052;SDS011;52833;45.112;39.556;2022-07-25T07:40:17;2.75;;;2.50;;
66052;SDS011;52833;45.112;39.556;2022-07-25T07:42:44;2.95;;;2.55;;
66052;SDS011;52833;45.112;39.556;2022-07-25T07:45:13;4.35;;;2.67;;
66052;SDS011;52833;45.112;39.556;2022-07-25T07:47:48;3.13;;;2.60;;
66052;SDS011;52833;45.112;39.556;2022-07-25T07:50:18;3.65;;;2.60;;
66052;SDS011;52833;45.112;39.556;2022-07-25T07:52:47;4.60;;;2.60;;
66052;SDS011;52833;45.112;39.556;2022-07-25T07:55:14;3.95;;;2.50;;
66052;SDS011;52833;45.112;39.556;2022-07-25T07:58:00;2.85;;;2.35;;
66052;SDS011;52833;45.112;39.556;2022-07-25T08:00:27;3.90;;;2.47;;
66052;SDS011;52833;45.112;39.556;2022-07-25T08:03:00;12.32;;;2.53;;
66052;SDS011;52833;45.112;39.556;2022-07-25T08:05:30;2.47;;;2.10;;
66052;SDS011;52833;45.112;39.556;2022-07-25T08:07:59;6.63;;;2.53;;
66052;SDS011;52833;45.112;39.556;2022-07-25T08:10:27;3.03;;;2.72;;
66052;SDS011;52833;45.112;39.556;2022-07-25T08:12:56;3.45;;;2.38;;
66052;SDS011;52833;45.112;39.556;2022-07-25T08:15:25;5.07;;;2.20;;
66052;SDS011;52833;45.112;39.556;2022-07-25T08:17:53;4.32;;;2.30;;
66052;SDS011;52833;45.112;39.556;2022-07-25T08:20:20;4.15;;;2.47;;
66052;SDS011;52833;45.112;39.556;2022-07-25T08:22:52;3.10;;;2.00;;
66052;SDS011;52833;45.112;39.556;2022-07-25T08:25:19;2.72;;;2.40;;
66052;SDS011;52833;45.112;39.556;2022-07-25T08:27:47;2.53;;;2.15;;
66052;SDS011;52833;45.112;39.556;2022-07-25T08:30:14;7.50;;;2.33;;
66052;SDS011;52833;45.112;39.556;2022-07-25T08:32:52;3.35;;;2.50;;
66052;SDS011;52833;45.112;39.556;2022-07-25T08:35:23;5.80;;;3.05;;
66052;SDS011;52833;45.112;39.556;2022-07-25T08:37:51;7.00;;;3.83;;
66052;SDS011;52833;45.112;39.556;2022-07-25T08:40:18;3.72;;;2.38;;
66052;SDS011;52833;45.112;39.556;2022-07-25T08:42:47;4.28;;;2.13;;
66052;SDS011;52833;45.112;39.556;2022-07-25T08:45:15;2.92;;;2.40;;
66052;SDS011;52833;45.112;39.556;2022-07-25T08:47:44;2.60;;;2.40;;
66052;SDS011;52833;45.112;39.556;2022-07-25T08:50:15;5.90;;;3.45;;
66052;SDS011;52833;45.112;39.556;2022-07-25T08:52:43;7.28;;;2.65;;
66052;SDS011;52833;45.112;39.556;2022-07-25T08:55:15;7.95;;;2.30;;
66052;SDS011;52833;45.112;39.556;2022-07-25T09:03:44;4.82;;;2.67;;
66052;SDS011;52833;45.112;39.556;2022-07-25T09:06:18;8.38;;;5.03;;
66052;SDS011;52833;45.112;39.556;2022-07-25T09:08:54;3.78;;;2.45;;
66052;SDS011;52833;45.112;39.556;2022-07-25T09:11:33;10.00;;;5.47;;
66052;SDS011;52833;45.112;39.556;2022-07-25T09:14:03;9.40;;;2.83;;
66052;SDS011;52833;45.112;39.556;2022-07-25T09:16:32;4.85;;;2.47;;
66052;SDS011;52833;45.112;39.556;2022-07-25T09:19:10;4.03;;;2.70;;
66052;SDS011;52833;45.112;39.556;2022-07-25T09:21:37;5.47;;;2.17;;
66052;SDS011;52833;45.112;39.556;2022-07-25T09:24:08;4.70;;;2.90;;
66052;SDS011;52833;45.112;39.556;2022-07-25T09:26:42;11.73;;;2.45;;
66052;SDS011;52833;45.112;39.556;2022-07-25T09:29:23;2.90;;;2.55;;
66052;SDS011;52833;45.112;39.556;2022-07-25T09:31:55;13.38;;;4.93;;
66052;SDS011;52833;45.112;39.556;2022-07-25T09:34:39;3.00;;;2.60;;
66052;SDS011;52833;45.112;39.556;2022-07-25T09:37:08;7.75;;;5.10;;
66052;SDS011;52833;45.112;39.556;2022-07-25T09:42:19;4.50;;;3.42;;
66052;SDS011;52833;45.112;39.556;2022-07-25T09:44:59;6.78;;;3.20;;
66052;SDS011;52833;45.112;39.556;2022-07-25T09:47:28;15.85;;;6.80;;
66052;SDS011;52833;45.112;39.556;2022-07-25T09:49:56;8.43;;;4.60;;
66052;SDS011;52833;45.112;39.556;2022-07-25T09:52:23;9.70;;;5.15;;
66052;SDS011;52833;45.112;39.556;2022-07-25T09:54:49;13.57;;;7.68;;
66052;SDS011;52833;45.112;39.556;2022-07-25T09:57:16;15.40;;;9.63;;
66052;SDS011;52833;45.112;39.556;2022-07-25T09:59:42;14.27;;;6.10;;
66052;SDS011;52833;45.112;39.556;2022-07-25T10:07:49;19.30;;;8.32;;
66052;SDS011;52833;45.112;39.556;2022-07-25T10:10:29;11.20;;;6.72;;
66052;SDS011;52833;45.112;39.556;2022-07-25T10:13:01;24.98;;;14.68;;
66052;SDS011;52833;45.112;39.556;2022-07-25T10:15:39;16.15;;;10.90;;
66052;SDS011;52833;45.112;39.556;2022-07-25T10:18:09;9.77;;;6.22;;
66052;SDS011;52833;45.112;39.556;2022-07-25T10:20:36;10.10;;;5.70;;
66052;SDS011;52833;45.112;39.556;2022-07-25T10:23:03;6.75;;;4.10;;
66052;SDS011;52833;45.112;39.556;2022-07-25T10:25:41;8.25;;;4.72;;
66052;SDS011;52833;45.112;39.556;2022-07-25T10:28:09;10.63;;;6.72;;
66052;SDS011;52833;45.112;39.556;2022-07-25T10:30:38;11.30;;;4.22;;
66052;SDS011;52833;45.112;39.556;2022-07-25T10:33:18;5.70;;;3.78;;
66052;SDS011;52833;45.112;39.556;2022-07-25T10:35:46;9.07;;;5.70;;
66052;SDS011;52833;45.112;39.556;2022-07-25T10:38:22;11.07;;;7.72;;
66052;SDS011;52833;45.112;39.556;2022-07-25T10:40:50;17.38;;;11.63;;
66052;SDS011;52833;45.112;39.556;2022-07-25T10:43:19;6.15;;;3.35;;
66052;SDS011;52833;45.112;39.556;2022-07-25T10:45:48;9.27;;;3.47;;
66052;SDS011;52833;45.112;39.556;2022-07-25T10:48:31;92.18;;;7.78;;
66052;SDS011;52833;45.112;39.556;2022-07-25T10:51:00;5.65;;;3.75;;
66052;SDS011;52833;45.112;39.556;2022-07-25T10:53:33;6.70;;;4.23;;
66052;SDS011;52833;45.112;39.556;2022-07-25T10:56:17;5.80;;;3.90;;
66052;SDS011;52833;45.112;39.556;2022-07-25T10:58:53;5.53;;;3.22;;
66052;SDS011;52833;45.112;39.556;2022-07-25T11:03:52;7.80;;;3.50;;
66052;SDS011;52833;45.112;39.556;2022-07-25T11:06:29;5.72;;;4.00;;
66052;SDS011;52833;45.112;39.556;2022-07-25T11:08:58;6.85;;;3.22;;
66052;SDS011;52833;45.112;39.556;2022-07-25T11:11:34;16.17;;;3.83;;
66052;SDS011;52833;45.112;39.556;2022-07-25T11:14:03;5.75;;;2.60;;
66052;SDS011;52833;45.112;39.556;2022-07-25T11:16:39;9.50;;;3.00;;
66052;SDS011;52833;45.112;39.556;2022-07-25T11:22:01;7.43;;;3.78;;
66052;SDS011;52833;45.112;39.556;2022-07-25T11:24:35;6.32;;;3.38;;
66052;SDS011;52833;45.112;39.556;2022-07-25T11:27:03;9.73;;;3.47;;
66052;SDS011;52833;45.112;39.556;2022-07-25T11:29:30;4.25;;;2.90;;
66052;SDS011;52833;45.112;39.556;2022-07-25T11:31:59;3.78;;;2.83;;
66052;SDS011;52833;45.112;39.556;2022-07-25T11:34:33;4.95;;;2.55;;
66052;SDS011;52833;45.112;39.556;2022-07-25T11:37:02;4.57;;;3.15;;
66052;SDS011;52833;45.112;39.556;2022-07-25T11:39:33;6.57;;;3.10;;
66052;SDS011;52833;45.112;39.556;2022-07-25T11:42:02;5.85;;;3.53;;
66052;SDS011;52833;45.112;39.556;2022-07-25T11:44:40;6.32;;;3.28;;
66052;SDS011;52833;45.112;39.556;2022-07-25T11:47:20;6.85;;;3.10;;
66052;SDS011;52833;45.112;39.556;2022-07-25T11:49:51;5.30;;;2.78;;
66052;SDS011;52833;45.112;39.556;2022-07-25T11:54:53;5.10;;;2.80;;
66052;SDS011;52833;45.112;39.556;2022-07-25T11:57:28;8.85;;;3.20;;
66052;SDS011;52833;45.112;39.556;2022-07-25T12:00:06;5.63;;;2.83;;
66052;SDS011;52833;45.112;39.556;2022-07-25T12:02:35;4.03;;;3.05;;
66052;SDS011;52833;45.112;39.556;2022-07-25T12:05:04;6.18;;;3.33;;
66052;SDS011;52833;45.112;39.556;2022-07-25T12:10:10;4.15;;;2.85;;
66052;SDS011;52833;45.112;39.556;2022-07-25T12:12:47;8.38;;;3.40;;
66052;SDS011;52833;45.112;39.556;2022-07-25T12:15:23;4.85;;;2.95;;
66052;SDS011;52833;45.112;39.556;2022-07-25T12:17:53;3.63;;;2.83;;
66052;SDS011;52833;45.112;39.556;2022-07-25T12:20:29;7.82;;;4.00;;
66052;SDS011;52833;45.112;39.556;2022-07-25T12:22:59;7.43;;;3.90;;
66052;SDS011;52833;45.112;39.556;2022-07-25T12:25:29;4.50;;;3.30;;
66052;SDS011;52833;45.112;39.556;2022-07-25T12:27:57;4.30;;;3.00;;
66052;SDS011;52833;45.112;39.556;2022-07-25T12:30:26;3.95;;;2.78;;
66052;SDS011;52833;45.112;39.556;2022-07-25T12:32:55;4.88;;;2.85;;
66052;SDS011;52833;45.112;39.556;2022-07-25T12:35:23;4.13;;;3.30;;
66052;SDS011;52833;45.112;39.556;2022-07-25T12:37:50;9.20;;;4.05;;
66052;SDS011;52833;45.112;39.556;2022-07-25T12:40:18;10.20;;;3.05;;
66052;SDS011;52833;45.112;39.556;2022-07-25T12:42:48;3.75;;;2.90;;
66052;SDS011;52833;45.112;39.556;2022-07-25T12:45:59;3.17;;;2.25;;
66052;SDS011;52833;45.112;39.556;2022-07-25T12:48:26;8.40;;;3.40;;
66052;SDS011;52833;45.112;39.556;2022-07-25T12:50:53;3.53;;;2.88;;
66052;SDS011;52833;45.112;39.556;2022-07-25T12:53:20;4.10;;;2.95;;
66052;SDS011;52833;45.112;39.556;2022-07-25T12:55:46;4.60;;;3.05;;
66052;SDS011;52833;45.112;39.556;2022-07-25T12:58:13;8.07;;;3.13;;
66052;SDS011;52833;45.112;39.556;2022-07-25T13:00:42;7.85;;;3.60;;
66052;SDS011;52833;45.112;39.556;2022-07-25T13:03:11;14.65;;;3.45;;
66052;SDS011;52833;45.112;39.556;2022-07-25T13:05:39;4.53;;;2.80;;
66052;SDS011;52833;45.112;39.556;2022-07-25T13:08:07;8.00;;;3.40;;
66052;SDS011;52833;45.112;39.556;2022-07-25T13:10:34;5.47;;;3.17;;
66052;SDS011;52833;45.112;39.556;2022-07-25T13:13:00;4.70;;;3.22;;
66052;SDS011;52833;45.112;39.556;2022-07-25T13:15:27;6.43;;;3.85;;
66052;SDS011;52833;45.112;39.556;2022-07-25T13:17:55;6.78;;;3.60;;
66052;SDS011;52833;45.112;39.556;2022-07-25T13:20:23;5.88;;;3.70;;
66052;SDS011;52833;45.112;39.556;2022-07-25T13:22:50;7.45;;;3.88;;
66052;SDS011;52833;45.112;39.556;2022-07-25T13:25:17;17.58;;;4.88;;
66052;SDS011;52833;45.112;39.556;2022-07-25T13:27:44;13.98;;;4.90;;
66052;SDS011;52833;45.112;39.556;2022-07-25T13:30:14;6.65;;;3.90;;
66052;SDS011;52833;45.112;39.556;2022-07-25T13:32:41;11.02;;;4.15;;
66052;SDS011;52833;45.112;39.556;2022-07-25T13:35:08;6.25;;;3.45;;
66052;SDS011;52833;45.112;39.556;2022-07-25T13:37:35;10.98;;;3.60;;
66052;SDS011;52833;45.112;39.556;2022-07-25T13:40:03;6.00;;;3.65;;
66052;SDS011;52833;45.112;39.556;2022-07-25T13:42:30;7.00;;;3.70;;
66052;SDS011;52833;45.112;39.556;2022-07-25T13:44:57;6.13;;;3.40;;
66052;SDS011;52833;45.112;39.556;2022-07-25T13:47:24;8.07;;;4.65;;
66052;SDS011;52833;45.112;39.556;2022-07-25T13:49:51;7.75;;;3.30;;
66052;SDS011;52833;45.112;39.556;2022-07-25T13:52:18;2.80;;;2.50;;
66052;SDS011;52833;45.112;39.556;2022-07-25T13:54:45;3.42;;;2.65;;
66052;SDS011;52833;45.112;39.556;2022-07-25T13:57:11;5.68;;;3.17;;
66052;SDS011;52833;45.112;39.556;2022-07-25T13:59:38;8.38;;;3.90;;
66052;SDS011;52833;45.112;39.556;2022-07-25T14:02:05;7.53;;;3.60;;
66052;SDS011;52833;45.112;39.556;2022-07-25T14:04:32;5.18;;;3.58;;
66052;SDS011;52833;45.112;39.556;2022-07-25T14:06:59;10.43;;;4.18;;
66052;SDS011;52833;45.112;39.556;2022-07-25T14:09:26;10.35;;;4.95;;
66052;SDS011;52833;45.112;39.556;2022-07-25T14:11:53;7.55;;;5.13;;
66052;SDS011;52833;45.112;39.556;2022-07-25T14:14:20;6.55;;;4.60;;
66052;SDS011;52833;45.112;39.556;2022-07-25T14:16:47;6.78;;;4.97;;
66052;SDS011;52833;45.112;39.556;2022-07-25T14:19:14;8.27;;;4.13;;
66052;SDS011;52833;45.112;39.556;2022-07-25T14:21:42;5.25;;;4.20;;
66052;SDS011;52833;45.112;39.556;2022-07-25T14:24:09;6.40;;;4.20;;
66052;SDS011;52833;45.112;39.556;2022-07-25T14:26:36;5.88;;;4.07;;
66052;SDS011;52833;45.112;39.556;2022-07-25T14:29:03;6.30;;;4.10;;
66052;SDS011;52833;45.112;39.556;2022-07-25T14:31:31;12.85;;;3.97;;
66052;SDS011;52833;45.112;39.556;2022-07-25T14:33:58;7.22;;;4.47;;
66052;SDS011;52833;45.112;39.556;2022-07-25T14:36:25;5.75;;;4.13;;
66052;SDS011;52833;45.112;39.556;2022-07-25T14:38:52;6.07;;;4.57;;
66052;SDS011;52833;45.112;39.556;2022-07-25T14:41:19;6.55;;;4.10;;
66052;SDS011;52833;45.112;39.556;2022-07-25T14:43:46;5.57;;;4.22;;
66052;SDS011;52833;45.112;39.556;2022-07-25T14:46:13;6.50;;;4.70;;
66052;SDS011;52833;45.112;39.556;2022-07-25T14:48:40;7.00;;;4.97;;
66052;SDS011;52833;45.112;39.556;2022-07-25T14:51:07;6.00;;;4.30;;
66052;SDS011;52833;45.112;39.556;2022-07-25T14:53:34;10.85;;;4.68;;
66052;SDS011;52833;45.112;39.556;2022-07-25T14:56:01;7.13;;;4.88;;
66052;SDS011;52833;45.112;39.556;2022-07-25T15:00:59;7.35;;;4.70;;
66052;SDS011;52833;45.112;39.556;2022-07-25T15:03:26;8.68;;;5.20;;
66052;SDS011;52833;45.112;39.556;2022-07-25T15:05:52;6.80;;;5.10;;